Aérodrome :
LOGIN :

S'inscrire | Disclaimer

   EN    FR    IT 

 










Légende :    VFR   VFR Marginal   IFR   IFR Intensif   IFR Très Intensif
Visi : 
Plafond : 
>= 8 km
>= 3000ft
5 à 8 km
1000 à 3000 ft
1500m à 5 km
500 à 1000 ft
800 à 1500m
200 à 500 ft
< 800m
< 200 ft
Symboles :   Orages  Brouillard  Fortes neiges  Fortes précipitations  Vent > 20 kt
SIGMETs :   Divers  Orages  Givrage  Turbulence  Onde Orograph.  Cendres Volcan.







- Altitude de l'aérodrome : 821 ft
- Code IATA : LYS
- Voir les cartes d'approche


LFLL - Lyon St Exupéry / Satolas

DERNIER METAR :
  • 250430Z 16004KT CAVOK 13/07 Q1017 NOSIG

METARs EXPIRÉS :
  • 250400Z 20005KT CAVOK 13/07 Q1017 NOSIG
  • 250330Z 18005KT CAVOK 16/08 Q1016 NOSIG
  • 250300Z 19007KT CAVOK 16/08 Q1016 NOSIG
  • 250230Z 21003KT 190V250 CAVOK 15/07 Q1016 NOSIG
  • 250200Z 00000KT CAVOK 14/07 Q1016 NOSIG

TAF TAF LFLL
Valide du 25 à 00h jusqu'au 26 à 06h UTC


242300Z 2500/2606 18005KT CAVOK
BECMG 2510/2512 34010KT
PROB30
TEMPO 2512/2518 36015G25KT 4000 -SHRA SCT040TCU
Pas de NOTAMs connus pour ce terrain.



MET'MAP, la Météo Aéronautique d'un coup d'oeil ! - Copyright ORBIFLY Décembre 2007 - Disclaimer

ORBIFLY MET'MAP TEAM :

Programmation & Développement : Alexandra Zaïnal
Conception & Développement : Baudouin d'Aumeries
Co-Programmation & Développement : Marc-Olivier Méhu
Soutien technique & logistique : Manuel Goepfert

Contact : metmap@orbifly.com




SOURCES & CREDITS :

   NOAA